6MA1 weather

Nason Hill Heliport
Sherborn, Massachusetts, United States

Public forecast

Using degrees Fahrenheit for public forecast. Weather courtesy of forecast.io.

METAR (pilot weather report)

Closest report is Norwood Memorial Airport, 9.2 nm (17.1 km) E. Retrieved 2019/09/17 09:00 UTC (17 minutes ago):

KOWD 170900Z AUTO 00000KT 3/4SM BR VV002 07/04 A3006 RMK AO2 T00670044

TAF (pilot weather forecast)

Closest forecast is Laurence G Hanscom Field, 16.4 nm (30.3 km) NNE. Retrieved 2019/09/17 06:34 UTC (3 hours ago):

TAF KBED 170532Z 1706/1806 VRB03KT P6SM SKC FM171300 36006KT P6SM FEW250 FM171700 01006KT P6SM SCT090 FM172000 06005KT P6SM SCT050 FM180300 00000KT P6SM SCT045